• Join FlightAware (Why Join?)
  • Login
  • US Flag 
04:03PM EDT


 

Airport Tracker/Info


-or-


 

Live Flight TrackerFlight Track Log ✈ KAP927 ✈ 22-Jun-2013 ✈ KOGS - KALB

Flight Track Log - Related Links

Times and Time Zones

All times are in EDT time to prevent confusion due to time zone crossing. See the KAP927 flight status page for this flight to view local times or setup timezone preferences in your user account.

Time Position Orientation Groundspeed Altitude Reporting Facility
EDT Latitude Longitude Course Direction KTS MPH feet Rate Location/Type
07:07AM 44.5422 -75.3092 149° Southeast 155 178 4,000  Level Boston Center
07:08AM 44.5181 -75.2847 144° Southeast 150 173 4,500 600 Climbing Boston Center
07:09AM 44.4792 -75.2508 148° Southeast 144 166 5,200 600 Climbing Boston Center
07:10AM 44.4486 -75.2231 147° Southeast 137 158 5,800 600 Climbing Boston Center
07:11AM 44.4139 -75.1953 150° Southeast 142 163 6,400 540 Climbing Boston Center
07:12AM 44.4902 -75.2947 149° Southeast  Level Estimated
07:12AM 44.3831 -75.1708 150° Southeast 136 157 6,900  Level Boston Center
07:13AM 44.3506 -75.1372 144° Southeast 136 157 7,300 300 Climbing Boston Center
07:14AM 44.3139 -75.1036 147° Southeast 141 162 7,500 60 Climbing Boston Center
07:15AM 44.2750 -75.0700 148° Southeast 146 168 7,500  Level Boston Center
07:16AM 44.2339 -75.0450 156° South 157 181 7,600  Climbing Boston Center
07:17AM 44.1950 -75.0114 148° Southeast 157 181 7,600  Level Boston Center
07:18AM 44.1583 -74.9781 147° Southeast 157 181 7,600  Level Boston Center
07:19AM 44.1214 -74.9447 147° Southeast 157 181 7,600 -60 Level Boston Center
07:20AM 44.0847 -74.9114 147° Southeast 157 181 7,500 -60 Descending Boston Center
07:21AM 44.0458 -74.8808 151° Southeast 157 181 7,500  Level Boston Center
07:22AM 44.0089 -74.8506 149° Southeast 157 181 7,500 -300 Level Boston Center
07:23AM 43.9658 -74.8142 149° Southeast 163 188 7,000 -480 Descending Boston Center
07:24AM 43.9250 -74.7808 150° Southeast 168 193 6,600 -420 Descending Boston Center
07:25AM 43.8819 -74.7417 147° Southeast 173 199 6,200 -480 Descending Boston Center
07:26AM 43.8408 -74.7083 150° Southeast 178 205 5,700 -300 Descending Boston Center
07:27AM 43.8000 -74.6722 147° Southeast 178 205 5,600 -60 Descending Boston Center
07:28AM 43.7608 -74.6422 151° Southeast 172 198 5,600 -60 Level Boston Center
07:29AM 43.7239 -74.6119 149° Southeast 167 192 5,500 -60 Descending Boston Center
07:30AM 43.6872 -74.5792 147° Southeast 160 184 5,500  Level Boston Center
07:31AM 43.6522 -74.5492 148° Southeast 160 184 5,500  Level Boston Center
07:32AM 43.6153 -74.5192 150° Southeast 160 184 5,600  Climbing Boston Center
07:33AM 43.5761 -74.4864 149° Southeast 160 184 5,500 -60 Descending Boston Center
07:34AM 43.5414 -74.4567 148° Southeast 160 184 5,500  Level Boston Center
07:35AM 43.5044 -74.4267 149° Southeast 160 184 5,500  Level Boston Center
07:36AM 43.4614 -74.3881 147° Southeast 160 184 5,500  Level Boston Center
07:37AM 43.4242 -74.3583 150° Southeast 160 184 5,500  Level Boston Center
07:38AM 43.3872 -74.3286 150° Southeast 160 184 5,500  Level Boston Center
07:39AM 43.3481 -74.2958 149° Southeast 160 184 5,500  Level Boston Center
07:40AM 43.3111 -74.2664 150° Southeast 160 184 5,500  Level Boston Center
07:41AM 43.2742 -74.2367 150° Southeast 160 184 5,500  Level Boston Center
07:42AM 43.2392 -74.2042 146° Southeast 160 184 5,500  Level Boston Center
07:43AM 43.2042 -74.1775 151° Southeast 160 184 5,500  Level Boston Center
07:44AM 43.1608 -74.1394 147° Southeast 160 184 5,500 -180 Level Boston Center
07:45AM 43.1200 -74.0956 142° Southeast 165 190 5,200 -420 Descending Boston Center
07:46AM 43.0828 -74.0661 150° Southeast 170 196 4,700 -540 Descending Boston Center
07:47AM 43.0397 -74.0253 145° Southeast 170 196 4,200 -420 Descending Boston Center
07:48AM 43.0025 -73.9903 145° Southeast 170 196 3,900 -360 Descending Boston Center
07:49AM 42.9594 -73.9464 143° Southeast 170 196 3,500 -300 Descending Boston Center
07:50AM 42.9267 -73.9089 140° Southeast 170 196 3,300 -300 Descending Boston Center
07:51AM 42.8875 -73.8625 139° Southeast 170 196 3,000 -540 Descending Boston Center
07:52AM 42.8400 -73.8247 150° Southeast 167 192 2,100 -840 Descending Boston Center
07:53AM 42.7964 -73.8097 166° South 144 166 1,200 -900 Descending Boston Center
07:54AM 42.7611 -73.8089 179° South 114 131 400 -840 Descending Boston Center
07:56AM 42.7491 -73.8020 160° South  Level Estimated
08:03AM 42.7491 -73.8020 160° South  Level Estimated
08:04AM 42.7491 -73.8020 160° South  Level Estimated